Newport, OR

6:45 AM PDT on August 24, 2016 (GMT -0700)
Schooner Point (new) | | Change Station

Elev 120 ft 44.69 °N, 124.07 °W | Updated 17 seconds ago

Mist
Mist
49.1 °F
Feels Like 49 °F
N
2.0
Wind Variable Wind from East
Gusts 3.0 mph

Today
High -- | Low -- °F
--% Chance of Precip.
Yesterday
High -- | Low -- °F
Precip. -- in
Pressure 30.18 in
Visibility 1.5 miles
Clouds
Windchill 49 °F
Dew Point 48 °F
Humidity 97%
Rainfall 0.00 in
Snow Depth Not available.
6:29 AM 8:05 PM
Waning Gibbous, 57% visible
METAR KONP 241335Z AUTO 00000KT 1 1/2SM BR VV007 08/08 A3018 RMK AO2 VIS 1/2V3
Pressure 30.18 in
Visibility 1.5 miles
Clouds
Windchill 49 °F
Dew Point 48 °F
Humidity 97%
Rainfall 0.00 in
Snow Depth Not available.
6:29 AM 8:05 PM
Waning Gibbous, 57% visible
METAR KONP 241335Z AUTO 00000KT 1 1/2SM BR VV007 08/08 A3018 RMK AO2 VIS 1/2V3

10-Day Weather Forecast

Almanac

Astronomy

Aug. 24, 2016 Rise Set
Actual Time
Civil Twilight
Nautical Twilight
Astronomical Twilight
Moon
Length of Visible Light
Length of Day
Tomorrow will be .
, % of the Moon is Illuminated

Today's Extremes

State Highs State Lows

Community

WunderPhotos

Upload Photos

1,934,598 photos uploaded!

WunderBlog® & News

Nearby

Air Quality

  Air Quality AQ Index Pollutant
Not available.

Snow Depth

Station Depth Elevation

Earthquake Activity

City Distance Mag. Time & Date
Minimum magnitude displayed is 2.5.

Coastal Water Temperatures

Place Temperature

Stations

Nearby Weather Stations

Station Location Temp. Windchill Dew Point Humidity Wind Precip. Elev Updated Type
                   

Watches & Warnings

There are currently no watches in effect.